createdAt,value
2018-12-16T00:01:02.572Z,434.33
2018-12-16T00:03:40.002Z,449.00
2018-12-16T00:06:19.203Z,421.77
2018-12-16T00:08:56.008Z,378.60
2018-12-16T00:11:33.024Z,353.40
2018-12-16T00:14:10.286Z,366.00
2018-12-16T00:16:46.758Z,326.70
2018-12-16T00:19:25.717Z,326.07
2018-12-16T00:22:02.968Z,331.83
2018-12-16T00:24:43.229Z,333.77
2018-12-16T00:27:21.127Z,326.67
2018-12-16T00:30:04.949Z,383.83
2018-12-16T00:32:41.655Z,328.43
2018-12-16T00:35:19.520Z,321.77
2018-12-16T00:37:57.761Z,348.23
2018-12-16T00:40:37.647Z,314.63
2018-12-16T00:43:15.822Z,355.10
2018-12-16T00:45:52.665Z,369.17
2018-12-16T00:48:29.427Z,372.70
2018-12-16T00:51:06.664Z,406.23
2018-12-16T00:53:46.378Z,340.00
2018-12-16T00:56:23.858Z,341.37
2018-12-16T00:59:01.226Z,372.57
2018-12-16T01:01:38.466Z,323.83
2018-12-16T01:04:15.530Z,321.23
2018-12-16T01:06:53.822Z,295.97
2018-12-16T01:09:32.869Z,276.33
2018-12-16T01:12:11.377Z,259.13
2018-12-16T01:14:49.776Z,220.00
2018-12-16T01:17:30.219Z,221.57
2018-12-16T01:20:09.481Z,259.60
2018-12-16T01:22:48.553Z,271.37
2018-12-16T01:25:29.187Z,235.47
2018-12-16T01:28:06.475Z,272.53
2018-12-16T01:30:44.379Z,257.77
2018-12-16T01:33:21.053Z,239.87
2018-12-16T01:35:59.222Z,279.67
2018-12-16T01:38:44.488Z,213.50
2018-12-16T01:41:21.362Z,217.57
2018-12-16T01:43:58.748Z,221.63
2018-12-16T01:46:35.799Z,200.63
2018-12-16T01:49:13.439Z,219.67
2018-12-16T01:51:51.140Z,205.33
2018-12-16T01:54:29.412Z,205.93
2018-12-16T01:57:08.494Z,221.13
2018-12-16T01:59:45.073Z,219.90
2018-12-16T02:02:22.387Z,230.20
2018-12-16T02:04:59.978Z,284.43
2018-12-16T02:07:37.052Z,239.80
2018-12-16T02:10:15.228Z,254.07
2018-12-16T02:12:53.471Z,242.67
2018-12-16T02:15:30.990Z,256.63
2018-12-16T02:18:08.535Z,233.97
2018-12-16T02:20:45.729Z,224.53
2018-12-16T02:23:23.216Z,313.50
2018-12-16T02:25:59.582Z,216.10
2018-12-16T02:28:36.779Z,209.50
2018-12-16T02:31:15.603Z,223.90
2018-12-16T02:33:56.714Z,216.30
2018-12-16T02:36:33.739Z,206.57
2018-12-16T02:39:10.379Z,209.00
2018-12-16T02:41:48.666Z,195.87
2018-12-16T02:44:28.148Z,222.47
2018-12-16T02:47:06.190Z,215.73
2018-12-16T02:49:42.787Z,204.87
2018-12-16T02:52:19.951Z,184.00
2018-12-16T02:54:56.983Z,199.00
2018-12-16T02:57:33.912Z,196.07
2018-12-16T03:00:14.276Z,201.07
2018-12-16T03:02:53.642Z,185.60
2018-12-16T03:05:33.376Z,181.73
2018-12-16T03:08:12.392Z,192.80
2018-12-16T03:10:53.407Z,168.87
2018-12-16T03:13:32.676Z,184.37
2018-12-16T03:16:09.878Z,159.67
2018-12-16T03:18:46.458Z,214.93
2018-12-16T03:21:23.139Z,211.33
2018-12-16T03:24:03.820Z,189.17
2018-12-16T03:26:44.722Z,203.03
2018-12-16T03:29:29.118Z,182.73
2018-12-16T03:32:07.778Z,211.17
2018-12-16T03:34:45.842Z,208.53
2018-12-16T03:37:23.710Z,253.87
2018-12-16T03:40:00.492Z,232.07
2018-12-16T03:42:41.093Z,210.53
2018-12-16T03:45:19.026Z,236.00
2018-12-16T03:47:57.725Z,211.73
2018-12-16T03:50:34.739Z,202.23
2018-12-16T03:53:11.244Z,208.63
2018-12-16T03:55:49.522Z,211.17
2018-12-16T03:58:27.846Z,202.87
2018-12-16T04:04:12.487Z,197.77
2018-12-16T04:06:50.717Z,182.37
2018-12-16T04:09:30.690Z,187.03
2018-12-16T04:12:08.052Z,192.80
2018-12-16T04:14:45.692Z,182.57
2018-12-16T04:17:23.614Z,205.27
2018-12-16T04:20:03.079Z,213.27
2018-12-16T04:22:40.048Z,192.20
2018-12-16T04:25:17.428Z,223.83
2018-12-16T04:27:54.481Z,199.63
2018-12-16T04:30:32.341Z,206.47
2018-12-16T04:33:13.944Z,192.83
2018-12-16T04:35:51.228Z,188.10
2018-12-16T04:38:28.375Z,219.87
2018-12-16T04:41:05.451Z,203.83
2018-12-16T04:43:44.070Z,209.83
2018-12-16T04:46:20.982Z,205.70
2018-12-16T04:48:58.026Z,194.10
2018-12-16T04:51:36.443Z,213.90
2018-12-16T04:54:14.058Z,195.70
2018-12-16T04:56:50.996Z,212.67
2018-12-16T04:59:28.440Z,223.80
2018-12-16T05:02:08.994Z,303.73
2018-12-16T05:04:46.755Z,196.10
2018-12-16T05:07:24.088Z,203.57
2018-12-16T05:10:11.214Z,174.90
2018-12-16T05:12:47.944Z,156.40
2018-12-16T05:15:25.681Z,169.73
2018-12-16T05:18:03.180Z,208.80
2018-12-16T05:20:44.093Z,253.97
2018-12-16T05:23:22.075Z,297.47
2018-12-16T05:25:58.736Z,328.73
2018-12-16T05:28:35.953Z,284.43
2018-12-16T05:31:13.237Z,318.10
2018-12-16T05:33:51.388Z,240.37
2018-12-16T05:36:28.091Z,232.00
2018-12-16T05:39:06.448Z,216.37
2018-12-16T05:41:45.093Z,231.87
2018-12-16T05:44:22.431Z,229.10
2018-12-16T05:47:02.360Z,417.93
2018-12-16T05:49:40.695Z,285.67
2018-12-16T05:52:18.970Z,264.60
2018-12-16T05:54:59.219Z,191.67
2018-12-16T05:57:36.797Z,133.57
2018-12-16T06:00:16.274Z,99.53
2018-12-16T06:02:54.446Z,72.53
2018-12-16T06:05:31.192Z,42.63
2018-12-16T06:08:07.865Z,86.47
2018-12-16T06:10:46.071Z,84.27
2018-12-16T06:13:22.456Z,72.37
2018-12-16T06:15:59.206Z,46.73
2018-12-16T06:18:35.928Z,52.63
2018-12-16T06:21:12.641Z,64.17
2018-12-16T06:23:55.356Z,30.83
2018-12-16T06:26:28.454Z,43.80
2018-12-16T06:29:04.913Z,49.80
2018-12-16T06:31:41.372Z,13.67
2018-12-16T06:34:17.703Z,11.20
2018-12-16T06:36:54.858Z,15.67
2018-12-16T06:39:30.783Z,24.73
2018-12-16T06:42:06.901Z,47.23
2018-12-16T06:44:57.711Z,21.80
2018-12-16T06:47:38.501Z,22.23
2018-12-16T06:50:15.014Z,19.83
2018-12-16T06:52:56.935Z,12.23
2018-12-16T06:55:43.230Z,22.93
2018-12-16T06:58:31.828Z,20.27
2018-12-16T07:01:25.058Z,43.73
2018-12-16T07:04:01.690Z,24.43
2018-12-16T07:06:40.133Z,12.07
2018-12-16T07:11:59.475Z,14.98
2018-12-16T07:14:35.422Z,18.53
2018-12-16T07:17:11.559Z,13.37
2018-12-16T07:21:11.885Z,20.80
2018-12-16T07:23:47.946Z,54.87
2018-12-16T07:26:24.161Z,28.83
2018-12-16T07:29:00.273Z,23.63
2018-12-16T07:31:36.275Z,13.93
2018-12-16T07:34:12.425Z,13.40
2018-12-16T07:36:48.518Z,26.30
2018-12-16T07:39:24.846Z,17.73
2018-12-16T07:42:01.193Z,22.77
2018-12-16T07:44:37.275Z,28.33
2018-12-16T07:47:15.410Z,50.97
2018-12-16T07:49:51.356Z,103.60
2018-12-16T07:52:27.625Z,119.23
2018-12-16T07:55:04.179Z,80.00
2018-12-16T07:57:40.356Z,92.10
2018-12-16T08:00:17.258Z,92.23
2018-12-16T08:02:53.388Z,145.87
2018-12-16T08:05:29.435Z,109.07
2018-12-16T08:08:09.475Z,80.40
2018-12-16T08:10:45.519Z,104.00
2018-12-16T08:13:21.533Z,85.63
2018-12-16T08:15:58.157Z,143.37
2018-12-16T08:18:34.334Z,101.80
2018-12-16T08:21:10.715Z,111.20
2018-12-16T08:23:46.831Z,46.50
2018-12-16T08:26:23.061Z,32.83
2018-12-16T08:29:00.033Z,38.57
2018-12-16T08:31:37.545Z,40.73
2018-12-16T08:34:15.369Z,39.83
2018-12-16T08:36:51.864Z,40.30
2018-12-16T08:39:28.414Z,28.10
2018-12-16T08:42:04.731Z,24.67
2018-12-16T08:44:42.187Z,46.10
2018-12-16T08:47:18.656Z,42.77
2018-12-16T08:49:54.694Z,44.27
2018-12-16T08:52:30.779Z,38.43
2018-12-16T08:55:07.323Z,36.97
2018-12-16T08:57:43.509Z,22.27
2018-12-16T09:00:19.529Z,36.87
2018-12-16T09:02:55.697Z,109.03
2018-12-16T09:05:31.670Z,64.70
2018-12-16T09:08:07.753Z,102.83
2018-12-16T09:10:43.794Z,70.63
2018-12-16T09:13:19.897Z,84.80
2018-12-16T09:15:55.890Z,77.80
2018-12-16T09:18:32.063Z,70.80
2018-12-16T09:21:07.998Z,81.53
2018-12-16T09:23:44.122Z,74.70
2018-12-16T09:26:20.451Z,178.00
2018-12-16T09:28:56.588Z,95.67
2018-12-16T09:31:32.878Z,50.57
2018-12-16T09:34:09.365Z,45.60
2018-12-16T09:36:45.619Z,30.47
2018-12-16T09:39:22.277Z,36.10
2018-12-16T09:41:58.228Z,29.77
2018-12-16T09:44:35.876Z,27.97
2018-12-16T09:47:18.011Z,40.83
2018-12-16T09:49:53.957Z,32.63
2018-12-16T09:52:29.970Z,29.40
2018-12-16T09:55:06.959Z,34.43
2018-12-16T09:57:43.011Z,27.33
2018-12-16T10:00:19.097Z,37.60
2018-12-16T10:02:55.157Z,57.60
2018-12-16T10:05:31.311Z,41.07
2018-12-16T10:08:07.586Z,76.70
2018-12-16T10:10:44.708Z,78.10
2018-12-16T10:13:20.945Z,92.40
2018-12-16T10:15:57.045Z,126.93
2018-12-16T10:18:33.091Z,109.90
2018-12-16T10:21:09.560Z,132.57
2018-12-16T10:23:45.428Z,71.20
2018-12-16T10:26:21.545Z,51.37
2018-12-16T10:28:57.554Z,50.83
2018-12-16T10:31:33.682Z,50.87
2018-12-16T10:34:09.675Z,49.57
2018-12-16T10:36:45.890Z,47.40
2018-12-16T10:39:21.852Z,52.13
2018-12-16T10:41:57.975Z,70.30
2018-12-16T10:44:55.595Z,59.07
2018-12-16T10:47:32.941Z,83.63
2018-12-16T10:50:09.344Z,83.43
2018-12-16T10:52:45.676Z,133.30
2018-12-16T10:55:21.830Z,102.77
2018-12-16T10:57:57.943Z,74.40
2018-12-16T11:00:40.678Z,122.07
2018-12-16T11:03:17.099Z,124.53
2018-12-16T11:05:53.138Z,129.40
2018-12-16T11:08:30.087Z,129.40
2018-12-16T11:11:06.182Z,133.47
2018-12-16T11:13:42.280Z,115.43
2018-12-16T11:16:18.415Z,206.87
2018-12-16T11:18:54.455Z,212.47
2018-12-16T11:21:30.737Z,185.57
2018-12-16T11:24:06.831Z,145.03
2018-12-16T11:26:42.863Z,195.70
2018-12-16T11:29:18.995Z,201.60
2018-12-16T11:31:54.975Z,211.80
2018-12-16T11:34:38.729Z,162.27
2018-12-16T11:37:14.785Z,91.47
2018-12-16T11:39:57.456Z,111.53
2018-12-16T11:42:34.476Z,96.07
2018-12-16T11:45:10.681Z,90.97
2018-12-16T11:47:47.394Z,136.50
2018-12-16T11:50:23.763Z,122.00
2018-12-16T11:52:59.861Z,65.43
2018-12-16T11:55:36.706Z,65.00
2018-12-16T11:58:12.768Z,38.53
2018-12-16T12:00:48.912Z,41.83
2018-12-16T12:03:24.892Z,44.77
2018-12-16T12:06:00.682Z,51.00
2018-12-16T12:08:36.703Z,24.33
2018-12-16T12:11:12.988Z,16.27
2018-12-16T12:13:49.121Z,22.10
2018-12-16T12:16:24.927Z,15.87
2018-12-16T12:19:02.107Z,17.10
2018-12-16T12:21:38.299Z,15.97
2018-12-16T12:24:14.303Z,14.83
2018-12-16T12:26:50.428Z,17.17
2018-12-16T12:29:26.497Z,19.07
2018-12-16T12:32:02.603Z,20.73
2018-12-16T12:34:38.572Z,21.10
2018-12-16T12:37:14.627Z,19.70
2018-12-16T12:39:50.680Z,68.40
2018-12-16T12:42:26.838Z,84.90
2018-12-16T12:45:02.863Z,41.97
2018-12-16T12:47:38.914Z,19.00
2018-12-16T12:50:14.928Z,47.70
2018-12-16T12:52:51.050Z,382.43
2018-12-16T12:55:27.204Z,23.87
2018-12-16T12:58:04.181Z,18.80
2018-12-16T13:00:40.079Z,14.20
2018-12-16T13:03:16.210Z,15.23
2018-12-16T13:05:52.195Z,15.97
2018-12-16T13:08:28.307Z,9.60
2018-12-16T13:11:04.309Z,13.60
2018-12-16T13:13:41.087Z,50.03
2018-12-16T13:16:17.374Z,23.67
2018-12-16T13:20:17.834Z,40.37
2018-12-16T13:22:53.973Z,32.77
2018-12-16T13:25:41.036Z,34.13
2018-12-16T13:28:17.268Z,48.87
2018-12-16T13:30:53.579Z,16.57
2018-12-16T13:33:29.569Z,35.63
2018-12-16T13:36:08.736Z,39.00
2018-12-16T13:38:44.831Z,26.97
2018-12-16T13:41:20.891Z,25.07
2018-12-16T13:43:56.911Z,25.23
2018-12-16T13:46:37.131Z,47.57
2018-12-16T13:49:13.319Z,32.47
2018-12-16T13:51:49.376Z,29.47
2018-12-16T13:54:25.482Z,106.97
2018-12-16T13:57:02.176Z,58.27
2018-12-16T13:59:38.480Z,68.77
2018-12-16T14:02:14.297Z,83.40
2018-12-16T14:04:50.295Z,91.17
2018-12-16T14:07:26.385Z,69.83
2018-12-16T14:10:02.405Z,75.30
2018-12-16T14:12:38.217Z,51.17
2018-12-16T14:15:16.985Z,71.90
2018-12-16T14:17:54.234Z,38.37
2018-12-16T14:20:30.339Z,51.03
2018-12-16T14:23:06.579Z,38.40
2018-12-16T14:25:47.997Z,28.30
2018-12-16T14:28:21.026Z,48.07
2018-12-16T14:30:57.039Z,37.10
2018-12-16T14:33:33.188Z,39.43
2018-12-16T14:36:09.146Z,45.03
2018-12-16T14:38:45.290Z,32.80
2018-12-16T14:42:45.593Z,47.17
2018-12-16T14:45:21.402Z,26.23
2018-12-16T14:47:57.580Z,56.03
2018-12-16T14:50:33.763Z,37.97
2018-12-16T14:53:09.990Z,28.27
2018-12-16T14:55:45.766Z,39.90
2018-12-16T14:58:21.801Z,86.17
2018-12-16T15:00:58.008Z,25.37
2018-12-16T15:03:34.028Z,24.20
2018-12-16T15:06:10.082Z,18.50
2018-12-16T15:08:46.419Z,18.17
2018-12-16T15:11:29.830Z,23.13
2018-12-16T15:14:06.961Z,22.53
2018-12-16T15:16:43.037Z,49.37
2018-12-16T15:19:19.243Z,32.87
2018-12-16T15:21:55.380Z,61.97
2018-12-16T15:24:31.318Z,37.03
2018-12-16T15:27:07.418Z,27.17
2018-12-16T15:29:44.356Z,53.47
2018-12-16T15:32:20.499Z,35.90
2018-12-16T15:34:56.818Z,45.03
2018-12-16T15:37:33.294Z,37.93
2018-12-16T15:40:09.557Z,37.33
2018-12-16T15:42:45.662Z,67.17
2018-12-16T15:45:27.667Z,34.37
2018-12-16T15:48:03.928Z,32.83
2018-12-16T15:50:39.947Z,35.33
2018-12-16T15:53:16.083Z,33.90
2018-12-16T15:58:40.371Z,11.87
2018-12-16T16:01:17.720Z,21.67
2018-12-16T16:03:53.783Z,26.57
2018-12-16T16:06:29.807Z,30.73
2018-12-16T16:09:08.032Z,33.47
2018-12-16T16:11:44.061Z,24.57
2018-12-16T16:14:20.142Z,49.40
2018-12-16T16:17:00.181Z,21.90
2018-12-16T16:19:36.298Z,38.00
2018-12-16T16:22:12.298Z,45.33
2018-12-16T16:24:48.475Z,47.43
2018-12-16T16:27:24.415Z,42.63
2018-12-16T16:30:00.503Z,27.63
2018-12-16T16:32:36.510Z,82.30
2018-12-16T16:35:12.666Z,32.97
2018-12-16T16:37:49.447Z,68.50
2018-12-16T16:40:26.234Z,25.43
2018-12-16T16:43:02.539Z,92.43
2018-12-16T16:45:38.734Z,58.63
2018-12-16T16:48:14.755Z,66.77
2018-12-16T16:50:50.837Z,38.30
2018-12-16T16:53:26.865Z,34.70
2018-12-16T16:56:03.369Z,36.00
2018-12-16T16:58:39.293Z,39.33
2018-12-16T17:01:15.410Z,33.83
2018-12-16T17:03:51.391Z,46.10
2018-12-16T17:06:27.551Z,156.07
2018-12-16T17:09:05.287Z,30.53
2018-12-16T17:11:41.194Z,38.13
2018-12-16T17:14:17.563Z,36.43
2018-12-16T17:16:53.985Z,52.87
2018-12-16T17:19:30.074Z,71.50
2018-12-16T17:22:06.675Z,251.07
2018-12-16T17:24:42.684Z,123.80
2018-12-16T17:27:19.319Z,112.10
2018-12-16T17:37:05.134Z,52.50
2018-12-16T17:39:36.361Z,105.07
2018-12-16T17:42:07.577Z,80.57
2018-12-16T17:44:38.634Z,146.47
2018-12-16T17:47:09.942Z,118.70
2018-12-16T17:49:41.860Z,100.00
2018-12-16T17:52:13.155Z,104.03
2018-12-16T17:54:44.802Z,68.37
2018-12-16T17:57:16.291Z,56.10
2018-12-16T17:59:47.485Z,42.50
2018-12-16T18:02:18.555Z,48.23
2018-12-16T18:04:49.638Z,106.33
2018-12-16T18:07:20.820Z,80.23
2018-12-16T18:09:51.969Z,39.17
2018-12-16T18:12:23.118Z,102.40
2018-12-16T18:14:54.186Z,32.33
2018-12-16T18:17:25.423Z,41.00
2018-12-16T18:19:56.855Z,45.00
2018-12-16T18:22:27.991Z,40.10
2018-12-16T18:24:59.086Z,34.53
2018-12-16T18:27:29.991Z,34.27
2018-12-16T18:30:00.910Z,43.37
2018-12-16T18:32:31.964Z,47.13
2018-12-16T18:35:03.238Z,44.07
2018-12-16T18:37:35.715Z,27.03
2018-12-16T18:40:07.886Z,32.37
2018-12-16T18:42:41.503Z,29.83
2018-12-16T18:45:18.078Z,31.80
2018-12-16T18:47:58.818Z,68.00
2018-12-16T18:50:29.719Z,32.17
2018-12-16T18:53:00.811Z,23.40
2018-12-16T18:55:31.904Z,36.03
2018-12-16T18:58:03.383Z,13.77
2018-12-16T19:00:34.531Z,27.20
2018-12-16T19:03:05.777Z,30.83
2018-12-16T19:05:36.761Z,25.37
2018-12-16T19:08:07.967Z,27.40
2018-12-16T19:10:39.213Z,26.47
2018-12-16T19:13:10.291Z,28.20
2018-12-16T19:15:41.362Z,20.47
2018-12-16T19:18:12.771Z,32.13
2018-12-16T19:20:44.043Z,39.77
2018-12-16T19:23:15.164Z,33.60
2018-12-16T19:25:46.247Z,33.90
2018-12-16T19:28:17.420Z,25.07
2018-12-16T19:30:48.579Z,41.10
2018-12-16T19:33:19.719Z,36.93
2018-12-16T19:35:50.828Z,77.33
2018-12-16T19:38:22.001Z,35.37
2018-12-16T19:41:10.246Z,27.23
2018-12-16T19:43:45.221Z,23.23
2018-12-16T19:46:16.322Z,19.70
2018-12-16T19:48:47.487Z,31.20
2018-12-16T19:51:18.572Z,42.40
2018-12-16T19:53:49.833Z,27.57
2018-12-16T19:56:21.149Z,15.83
2018-12-16T19:58:52.861Z,16.50
2018-12-16T20:01:24.048Z,17.57
2018-12-16T20:04:14.286Z,37.77
2018-12-16T20:06:47.851Z,16.23
2018-12-16T20:09:20.367Z,17.57
2018-12-16T20:11:51.385Z,15.77
2018-12-16T20:14:22.608Z,14.70
2018-12-16T20:16:53.687Z,15.03
2018-12-16T20:19:25.003Z,18.67
2018-12-16T20:21:57.698Z,23.33
2018-12-16T20:24:29.055Z,17.87
2018-12-16T20:27:00.103Z,15.73
2018-12-16T20:29:31.333Z,15.83
2018-12-16T20:32:02.560Z,19.93
2018-12-16T20:34:33.894Z,30.87
2018-12-16T20:37:05.465Z,22.50
2018-12-16T20:39:36.546Z,28.90
2018-12-16T20:42:07.648Z,23.93
2018-12-16T20:44:39.679Z,27.03
2018-12-16T20:47:10.541Z,24.60
2018-12-16T20:49:41.996Z,49.50
2018-12-16T20:52:13.092Z,194.17
2018-12-16T20:54:44.266Z,487.87
2018-12-16T20:57:18.856Z,171.30
2018-12-16T20:59:48.569Z,52.00
2018-12-16T21:02:19.534Z,125.53
2018-12-16T21:04:51.134Z,218.63
2018-12-16T21:07:22.449Z,61.37
2018-12-16T21:09:53.377Z,59.87
2018-12-16T21:12:29.565Z,65.73
2018-12-16T21:15:05.716Z,187.57
2018-12-16T21:18:44.749Z,120.43
2018-12-16T21:21:16.339Z,43.53
2018-12-16T21:23:49.002Z,30.03
2018-12-16T21:26:20.266Z,30.90
2018-12-16T21:28:51.759Z,63.67
2018-12-16T21:31:23.916Z,78.33
2018-12-16T21:33:54.983Z,45.13
2018-12-16T21:36:26.841Z,68.90
2018-12-16T21:38:57.965Z,52.87
2018-12-16T21:41:31.709Z,61.97
2018-12-16T21:44:02.795Z,36.43
2018-12-16T21:46:33.959Z,32.37
2018-12-16T21:49:05.980Z,30.23
2018-12-16T21:51:38.482Z,38.17
2018-12-16T21:54:09.894Z,67.93
2018-12-16T21:56:41.349Z,49.17
2018-12-16T21:59:13.069Z,27.97
2018-12-16T22:01:44.725Z,33.93
2018-12-16T22:04:15.887Z,20.33
2018-12-16T22:06:51.632Z,24.30
2018-12-16T22:09:22.548Z,28.33
2018-12-16T22:11:53.891Z,32.27
2018-12-16T22:14:27.661Z,34.43
2018-12-16T22:17:03.196Z,30.53
2018-12-16T22:19:34.921Z,19.63
2018-12-16T22:22:07.124Z,37.57
2018-12-16T22:24:39.711Z,36.93
2018-12-16T22:27:12.523Z,16.13
2018-12-16T22:29:45.750Z,39.97
2018-12-16T22:32:17.772Z,34.00
2018-12-16T22:34:51.177Z,21.37
2018-12-16T22:37:25.093Z,16.33
2018-12-16T22:39:57.190Z,32.80
2018-12-16T22:42:29.832Z,18.57
2018-12-16T22:45:02.035Z,34.43
2018-12-16T22:47:33.583Z,20.90
2018-12-16T22:50:06.513Z,29.57
2018-12-16T22:52:38.740Z,13.53
2018-12-16T22:55:10.793Z,36.50
2018-12-16T22:57:47.039Z,26.47
2018-12-16T23:00:20.167Z,22.60
2018-12-16T23:02:52.008Z,18.33
2018-12-16T23:05:24.710Z,13.80
2018-12-16T23:07:56.891Z,12.33
2018-12-16T23:10:30.156Z,18.77
2018-12-16T23:13:05.624Z,11.97
2018-12-16T23:15:37.663Z,17.53
2018-12-16T23:18:08.889Z,14.73
2018-12-16T23:20:40.085Z,16.03
2018-12-16T23:23:11.289Z,16.90
2018-12-16T23:25:42.431Z,14.47
2018-12-16T23:28:13.865Z,18.73
2018-12-16T23:30:45.901Z,19.90
2018-12-16T23:33:17.687Z,27.90
2018-12-16T23:35:49.064Z,26.23
2018-12-16T23:38:20.228Z,21.27
2018-12-16T23:40:51.330Z,22.77
2018-12-16T23:43:22.504Z,17.03
2018-12-16T23:45:59.327Z,14.67
2018-12-16T23:48:30.236Z,20.27
2018-12-16T23:51:01.088Z,16.80
2018-12-16T23:53:31.999Z,15.73
2018-12-16T23:56:03.122Z,18.20
2018-12-16T23:58:34.302Z,18.07
